Ida — C4CZ2 — position and weather

sailwx.info

Track history (hours):
 
Tides and Currents Weather Stations Pressure Air Temp Water Temp Dewpoint Dewpoint Depression Visibility Wind Speed Wind Dir Waves Ship Positions

Ida

Last reported at 2014-Sep-30 15:10 UTC. Time now 2014-Sep-30 15:54 UTC.
Position N 55°11' W 000°51'.

Length 82 m; draft 3.2 m.

Type: Cargo ship. MMSI: 210319000.

Date/timePositionNaut miles runAvg speedWind from/ knotsBaromVisibWave heightAir tempDewpointWater temp
2014-Sep-30 15:10N 55°11' W 000°51'6 9.4
2014-Sep-30 14:33N 55°06' W 000°45'10 9.5
2014-Sep-30 13:33N 54°58' W 000°36'13 9.7
2014-Sep-30 12:11N 54°47' W 000°24'6 9.7
2014-Sep-30 11:33N 54°42' W 000°18'9 9.4
2014-Sep-30 10:33N 54°34' W 000°09'9 8.9
2014-Sep-30 09:33N 54°26' W 000°01'8 8.2
2014-Sep-30 08:33N 54°19' E 000°07'8 7.8
2014-Sep-30 07:33N 54°13' E 000°14'8 8.0
2014-Sep-30 06:33N 54°11' E 000°27'7 7.3
2014-Sep-30 05:33N 54°04' E 000°25'65 9.2
2014-Sep-29 22:33N 53°09' E 001°22'7 7.4
2014-Sep-29 21:33N 53°03' E 001°28'7 7.5
2014-Sep-29 20:33N 52°57' E 001°36'9 8.6
2014-Sep-29 19:33N 52°51' E 001°45'10 9.7
2014-Sep-29 18:33N 52°43' E 001°55'1211.6
2014-Sep-29 17:33N 52°31' E 001°54'1211.7
2014-Sep-29 16:33N 52°20' E 001°53'1111.1
2014-Sep-29 15:32N 52°08' E 001°51'1010.1
2014-Sep-29 14:33N 51°58' E 001°50'9 8.7
2014-Sep-29 13:33N 51°50' E 001°49'8 7.7
2014-Sep-29 12:33N 51°42' E 001°48'5 5.1
2014-Sep-29 11:33N 51°37' E 001°49'7 7.3
2014-Sep-29 10:33N 51°30' E 001°49'7 7.4
2014-Sep-29 09:33N 51°23' E 001°45'8 7.9
2014-Sep-29 08:33N 51°15' E 001°41'7 7.3
2014-Sep-29 07:33N 51°08' E 001°37'7 7.0
2014-Sep-29 06:33N 51°02' E 001°33'38 9.4
2014-Sep-29 02:32N 50°31' E 000°58'9 9.7
2014-Sep-29 01:33N 50°27' E 000°44'1010.1
2014-Sep-29 00:33N 50°25' E 000°29'1111.0
2014-Sep-28 23:32N 50°22' E 000°12'4610.7
2014-Sep-28 19:13N 50°09' W 000°57'24 6.4
2014-Sep-28 15:27N 50°02' W 001°34'34 8.4
2014-Sep-28 11:28N 49°53' W 002°24'1111.1
2014-Sep-28 10:31N 49°50' W 002°40'1111.0
2014-Sep-28 09:33N 49°46' W 002°55'1210.9
2014-Sep-28 08:27N 49°40' W 003°11'1210.9
2014-Sep-28 07:21N 49°34' W 003°27'2910.2
2014-Sep-28 04:33N 49°20' W 004°05'9 9.3
2014-Sep-28 03:33N 49°15' W 004°17'9 8.7
2014-Sep-28 02:33N 49°11' W 004°29'46 7.6
2014-Sep-27 20:33N 48°48' W 005°29'8 8.5
2014-Sep-27 19:33N 48°42' W 005°38'9 9.3
2014-Sep-27 18:33N 48°34' W 005°45'3010.0
2014-Sep-27 15:33N 48°07' W 006°05'1010.0
2014-Sep-27 14:33N 47°58' W 006°12'9 9.4
2014-Sep-27 13:33N 47°50' W 006°19'17 8.7
2014-Sep-27 11:33N 47°34' W 006°31'17 8.7
2014-Sep-27 09:33N 47°19' W 006°43'  
2014-Sep-24 08:33N 37°48' W 009°34'9 7.8
2014-Sep-24 07:26N 37°40' W 009°31'  
Track history (hours):
 
Tides and Currents Weather Stations Pressure Air Temp Water Temp Dewpoint Dewpoint Depression Visibility Wind Speed Wind Dir Waves Ship Positions

Ida

Last reported at 2014-Sep-30 15:10 UTC. Time now 2014-Sep-30 15:54 UTC.
Position N 55°11' W 000°51'.

Length 82 m; draft 3.2 m.

Type: Cargo ship. MMSI: 210319000.

Date/timePositionNaut miles runAvg speedWind from/ knotsBaromVisibWave heightAir tempDewpointWater temp
2014-Sep-30 15:10N 55°11' W 000°51'6 9.4
2014-Sep-30 14:33N 55°06' W 000°45'10 9.5
2014-Sep-30 13:33N 54°58' W 000°36'13 9.7
2014-Sep-30 12:11N 54°47' W 000°24'6 9.7
2014-Sep-30 11:33N 54°42' W 000°18'9 9.4
2014-Sep-30 10:33N 54°34' W 000°09'9 8.9
2014-Sep-30 09:33N 54°26' W 000°01'8 8.2
2014-Sep-30 08:33N 54°19' E 000°07'8 7.8
2014-Sep-30 07:33N 54°13' E 000°14'8 8.0
2014-Sep-30 06:33N 54°11' E 000°27'7 7.3
2014-Sep-30 05:33N 54°04' E 000°25'65 9.2
2014-Sep-29 22:33N 53°09' E 001°22'7 7.4
2014-Sep-29 21:33N 53°03' E 001°28'7 7.5
2014-Sep-29 20:33N 52°57' E 001°36'9 8.6
2014-Sep-29 19:33N 52°51' E 001°45'10 9.7
2014-Sep-29 18:33N 52°43' E 001°55'1211.6
2014-Sep-29 17:33N 52°31' E 001°54'1211.7
2014-Sep-29 16:33N 52°20' E 001°53'1111.1
2014-Sep-29 15:32N 52°08' E 001°51'1010.1
2014-Sep-29 14:33N 51°58' E 001°50'9 8.7
2014-Sep-29 13:33N 51°50' E 001°49'8 7.7
2014-Sep-29 12:33N 51°42' E 001°48'5 5.1
2014-Sep-29 11:33N 51°37' E 001°49'7 7.3
2014-Sep-29 10:33N 51°30' E 001°49'7 7.4
2014-Sep-29 09:33N 51°23' E 001°45'8 7.9
2014-Sep-29 08:33N 51°15' E 001°41'7 7.3
2014-Sep-29 07:33N 51°08' E 001°37'7 7.0
2014-Sep-29 06:33N 51°02' E 001°33'38 9.4
2014-Sep-29 02:32N 50°31' E 000°58'9 9.7
2014-Sep-29 01:33N 50°27' E 000°44'1010.1
2014-Sep-29 00:33N 50°25' E 000°29'1111.0
2014-Sep-28 23:32N 50°22' E 000°12'4610.7
2014-Sep-28 19:13N 50°09' W 000°57'24 6.4
2014-Sep-28 15:27N 50°02' W 001°34'34 8.4
2014-Sep-28 11:28N 49°53' W 002°24'1111.1
2014-Sep-28 10:31N 49°50' W 002°40'1111.0
2014-Sep-28 09:33N 49°46' W 002°55'1210.9
2014-Sep-28 08:27N 49°40' W 003°11'1210.9
2014-Sep-28 07:21N 49°34' W 003°27'2910.2
2014-Sep-28 04:33N 49°20' W 004°05'9 9.3
2014-Sep-28 03:33N 49°15' W 004°17'9 8.7
2014-Sep-28 02:33N 49°11' W 004°29'46 7.6
2014-Sep-27 20:33N 48°48' W 005°29'8 8.5
2014-Sep-27 19:33N 48°42' W 005°38'9 9.3
2014-Sep-27 18:33N 48°34' W 005°45'3010.0
2014-Sep-27 15:33N 48°07' W 006°05'1010.0
2014-Sep-27 14:33N 47°58' W 006°12'9 9.4
2014-Sep-27 13:33N 47°50' W 006°19'17 8.7
2014-Sep-27 11:33N 47°34' W 006°31'17 8.7
2014-Sep-27 09:33N 47°19' W 006°43'  
2014-Sep-24 08:33N 37°48' W 009°34'9 7.8
2014-Sep-24 07:26N 37°40' W 009°31'  

Dump ship's entire track history